Time;durP1;ratioP1;P1;durP2;ratioP2;P2;SDS_P1;SDS_P2;PMS_P1;PMS_P2;Temp;Humidity;BMP_temperature;BMP_pressure;BME280_temperature;BME280_humidity;BME280_pressure;Samples;Min_cycle;Max_cycle;Signal;HPM_P1;HPM_P2
2022/07/31 00:01:14;;;;;;;41.22;18.65;;;;;;;18.84;76.83;101521.00;4974765;28;20022;-71
2022/07/31 00:03:40;;;;;;;29.08;16.77;;;;;;;18.88;76.73;101516.81;4970505;28;20019;-71
2022/07/31 00:06:06;;;;;;;28.60;17.83;;;;;;;18.89;76.49;101518.53;5000923;28;20092;-71
2022/07/31 00:08:32;;;;;;;32.80;18.52;;;;;;;18.50;77.81;101514.31;4979665;28;20030;-70
2022/07/31 00:10:57;;;;;;;35.95;19.13;;;;;;;18.56;77.46;101513.53;4980749;28;20426;-71
2022/07/31 00:13:23;;;;;;;36.03;18.27;;;;;;;18.56;77.62;101508.03;5004252;28;20029;-70
2022/07/31 00:15:48;;;;;;;42.58;19.88;;;;;;;18.55;77.63;101517.31;4965201;28;20065;-70
2022/07/31 00:18:14;;;;;;;36.35;20.42;;;;;;;18.44;77.93;101515.09;4999965;28;20081;-71
2022/07/31 00:20:39;;;;;;;33.33;19.75;;;;;;;18.39;77.64;101507.47;4971991;28;20021;-71
2022/07/31 00:23:05;;;;;;;31.23;16.98;;;;;;;18.41;77.90;101510.00;4989909;28;20026;-70
2022/07/31 00:25:30;;;;;;;41.38;20.38;;;;;;;18.32;78.25;101500.19;4990863;28;20246;-70
2022/07/31 00:27:56;;;;;;;36.05;17.65;;;;;;;18.52;77.36;101506.75;4972240;28;20030;-70
2022/07/31 00:30:22;;;;;;;39.65;18.17;;;;;;;18.47;77.47;101508.38;4991321;28;20022;-70
2022/07/31 00:32:48;;;;;;;29.15;18.90;;;;;;;18.43;77.51;101507.91;4980148;28;20030;-69
2022/07/31 00:35:13;;;;;;;37.88;18.90;;;;;;;18.56;76.85;101502.56;4992109;28;20032;-70
2022/07/31 00:37:39;;;;;;;31.63;17.45;;;;;;;18.39;77.20;101506.63;4968822;28;20377;-69
2022/07/31 00:40:06;;;;;;;32.75;18.83;;;;;;;18.33;77.28;101501.91;4973113;28;20026;-69
2022/07/31 00:42:31;;;;;;;37.65;19.05;;;;;;;18.41;76.65;101499.03;4978803;28;20520;-69
2022/07/31 00:44:57;;;;;;;27.77;17.20;;;;;;;18.35;77.01;101491.59;4986639;28;20108;-69
2022/07/31 00:47:22;;;;;;;27.45;16.52;;;;;;;18.55;76.41;101498.13;4964417;28;20033;-69
2022/07/31 00:49:48;;;;;;;30.42;17.35;;;;;;;18.63;75.54;101497.97;4982317;28;20057;-69
2022/07/31 00:52:13;;;;;;;31.13;17.02;;;;;;;18.45;76.15;101483.88;4970837;28;20022;-69
2022/07/31 00:54:39;;;;;;;32.17;16.15;;;;;;;18.62;75.64;101490.81;4975630;28;20036;-69
2022/07/31 00:57:05;;;;;;;35.13;17.48;;;;;;;18.55;75.49;101484.41;4962940;28;20022;-69
2022/07/31 00:59:31;;;;;;;34.28;15.30;;;;;;;18.42;76.28;101478.78;4971225;28;20038;-69
2022/07/31 01:01:58;;;;;;;24.75;14.50;;;;;;;18.73;75.00;101475.75;4971032;28;20027;-69
2022/07/31 01:04:25;;;;;;;22.90;14.52;;;;;;;18.84;74.43;101471.59;4981293;28;20038;-70
2022/07/31 01:06:51;;;;;;;29.50;14.00;;;;;;;18.87;73.98;101468.50;4978204;28;20058;-69
2022/07/31 01:09:16;;;;;;;28.20;14.80;;;;;;;18.92;73.95;101463.25;4970457;28;20030;-69
2022/07/31 01:11:54;;;;;;;28.88;16.30;;;;;;;18.73;74.57;101475.75;4985347;28;20057;-69
2022/07/31 01:14:22;;;;;;;34.67;14.32;;;;;;;18.84;74.12;101479.84;4975592;28;20497;-69
2022/07/31 01:16:51;;;;;;;25.48;15.13;;;;;;;18.87;73.80;101483.06;4994114;28;20021;-69
2022/07/31 01:19:30;;;;;;;27.05;14.80;;;;;;;18.92;73.52;101479.72;4978476;28;20026;-69
2022/07/31 01:22:23;;;;;;;33.78;15.90;;;;;;;18.74;74.26;101482.09;4972998;28;20057;-69
2022/07/31 01:25:04;;;;;;;34.25;15.98;;;;;;;18.93;73.56;101486.91;4964691;28;20022;-69
2022/07/31 01:27:56;;;;;;;28.23;16.77;;;;;;;18.73;73.85;101485.88;4993701;28;20033;-69
2022/07/31 01:30:24;;;;;;;30.20;15.43;;;;;;;18.67;74.22;101493.84;4988760;28;20026;-71
2022/07/31 01:32:52;;;;;;;24.63;15.40;;;;;;;18.65;74.24;101484.94;4986511;28;20030;-69
2022/07/31 01:35:26;;;;;;;33.50;17.02;;;;;;;18.69;73.96;101489.00;4969505;28;20022;-69
2022/07/31 01:37:57;;;;;;;34.15;17.73;;;;;;;18.43;74.83;101485.97;4985223;28;20031;-69
2022/07/31 01:40:31;;;;;;;27.90;18.52;;;;;;;18.35;75.31;101484.19;4964578;28;20034;-70
2022/07/31 01:43:04;;;;;;;34.85;16.92;;;;;;;18.50;74.58;101480.56;4968957;28;20120;-69
2022/07/31 01:45:32;;;;;;;26.30;16.92;;;;;;;18.42;75.11;101478.78;4985722;28;20078;-69
2022/07/31 01:47:59;;;;;;;37.30;16.60;;;;;;;18.46;74.76;101477.38;4970967;28;20040;-69
2022/07/31 01:50:25;;;;;;;27.45;16.13;;;;;;;18.33;75.11;101474.50;4968366;28;20038;-69
2022/07/31 01:52:53;;;;;;;33.53;16.92;;;;;;;18.27;75.17;101483.50;4978162;28;20038;-69
2022/07/31 01:55:19;;;;;;;23.75;14.77;;;;;;;18.33;74.75;101480.81;4966508;28;20034;-70
2022/07/31 01:57:45;;;;;;;25.98;16.27;;;;;;;18.42;74.70;101478.78;4969153;28;20027;-69
2022/07/31 02:00:11;;;;;;;39.33;19.33;;;;;;;18.04;75.93;101476.25;4971268;28;20080;-69
2022/07/31 02:02:38;;;;;;;28.85;17.45;;;;;;;18.21;75.68;101487.00;4992156;28;20030;-69
2022/07/31 02:05:06;;;;;;;29.83;17.70;;;;;;;18.15;75.54;101483.97;4968718;28;20523;-69
2022/07/31 02:07:39;;;;;;;33.60;16.48;;;;;;;18.10;76.03;101478.22;4987205;28;20033;-69
2022/07/31 02:10:07;;;;;;;27.50;17.20;;;;;;;18.32;74.95;101472.75;4970359;28;20077;-69
2022/07/31 02:12:33;;;;;;;26.30;14.27;;;;;;;18.35;74.59;101472.38;4982431;28;20057;-69
2022/07/31 02:15:00;;;;;;;29.75;17.08;;;;;;;18.30;75.05;101470.22;4974271;28;20038;-69
2022/07/31 02:17:26;;;;;;;38.35;16.92;;;;;;;18.34;74.71;101467.97;4967271;28;20137;-69
2022/07/31 02:19:53;;;;;;;31.38;16.92;;;;;;;18.28;74.88;101471.47;4976799;28;20061;-69
2022/07/31 02:22:19;;;;;;;28.70;16.38;;;;;;;18.11;75.52;101471.69;4967084;28;20114;-69
2022/07/31 02:24:44;;;;;;;30.73;17.10;;;;;;;18.10;75.44;101480.97;4970212;28;20111;-70
2022/07/31 02:27:13;;;;;;;29.15;16.67;;;;;;;18.02;76.16;101472.88;4979918;28;20046;-69
2022/07/31 02:29:40;;;;;;;33.00;17.27;;;;;;;18.25;75.08;101471.84;4970307;28;20029;-69
2022/07/31 02:32:07;;;;;;;31.25;17.55;;;;;;;18.36;74.35;101468.59;4967027;28;20085;-70
2022/07/31 02:34:34;;;;;;;26.77;16.33;;;;;;;18.36;74.32;101474.09;4989623;28;20041;-70
2022/07/31 02:37:01;;;;;;;35.78;17.98;;;;;;;18.28;74.75;101466.00;4985798;28;20022;-70
2022/07/31 02:39:28;;;;;;;34.13;20.33;;;;;;;18.32;74.56;101467.28;4976433;28;20017;-69
2022/07/31 02:41:56;;;;;;;24.80;15.05;;;;;;;18.36;74.11;101468.59;4998210;28;20425;-70
2022/07/31 02:44:22;;;;;;;25.23;15.32;;;;;;;18.31;74.66;101468.31;4971221;28;20023;-70
2022/07/31 02:46:48;;;;;;;29.45;16.25;;;;;;;18.34;74.39;101470.69;4974072;28;20032;-70
2022/07/31 02:49:15;;;;;;;33.70;20.15;;;;;;;18.27;74.45;101458.81;4976195;28;20058;-69
2022/07/31 02:51:40;;;;;;;25.98;16.40;;;;;;;18.13;75.05;101463.31;4983067;28;20019;-70
2022/07/31 02:54:06;;;;;;;30.63;16.58;;;;;;;18.21;74.63;101465.06;4975746;28;20018;-70
2022/07/31 02:56:32;;;;;;;29.35;15.93;;;;;;;18.12;74.98;101456.94;4969873;28;20019;-70
2022/07/31 02:58:58;;;;;;;30.95;18.02;;;;;;;18.09;75.04;101457.34;4993857;28;20030;-70
2022/07/31 03:01:24;;;;;;;24.23;16.35;;;;;;;18.00;75.28;101447.56;4978449;28;20081;-70
2022/07/31 03:03:49;;;;;;;24.85;15.80;;;;;;;18.04;74.97;101437.88;4973481;28;20022;-70
2022/07/31 03:06:16;;;;;;;28.75;15.20;;;;;;;18.08;74.52;101444.69;4993340;28;20506;-70
2022/07/31 03:08:41;;;;;;;33.55;17.85;;;;;;;18.02;74.54;101448.19;4961606;28;20046;-71
2022/07/31 03:11:07;;;;;;;23.67;15.95;;;;;;;17.99;74.33;101444.97;4992604;28;20057;-71
2022/07/31 03:13:34;;;;;;;26.10;14.75;;;;;;;17.92;74.52;101447.66;4978848;28;20027;-70
2022/07/31 03:16:01;;;;;;;26.38;15.68;;;;;;;17.84;75.29;101447.75;4989248;28;20220;-70
2022/07/31 03:18:28;;;;;;;21.15;16.60;;;;;;;17.72;75.15;101460.25;4968758;28;20029;-70
2022/07/31 03:20:55;;;;;;;27.48;17.65;;;;;;;17.62;76.41;101458.63;5003308;28;20022;-70
2022/07/31 03:23:23;;;;;;;29.92;18.08;;;;;;;17.66;75.58;101456.34;4970476;28;20092;-70
2022/07/31 03:25:49;;;;;;;27.08;16.95;;;;;;;17.74;75.51;101455.47;4993845;28;20049;-69
2022/07/31 03:28:18;;;;;;;33.60;20.70;;;;;;;17.70;75.72;101445.88;4966245;28;20031;-70
2022/07/31 03:30:44;;;;;;;35.67;20.38;;;;;;;17.67;75.97;101454.47;4981697;28;20118;-69
2022/07/31 03:33:09;;;;;;;28.00;17.55;;;;;;;17.63;75.30;101452.13;4970525;28;20074;-69
2022/07/31 03:35:35;;;;;;;22.60;14.65;;;;;;;17.36;76.01;101445.44;4993203;28;20026;-70
2022/07/31 03:38:00;;;;;;;25.98;15.45;;;;;;;17.24;76.58;101449.66;4975028;28;20129;-70
2022/07/31 03:40:26;;;;;;;28.58;16.73;;;;;;;17.39;76.23;101444.19;4972316;28;20030;-70
2022/07/31 03:42:53;;;;;;;35.60;18.60;;;;;;;17.52;75.51;101443.53;4975098;28;20034;-70
2022/07/31 03:45:20;;;;;;;27.00;15.80;;;;;;;17.55;75.98;101437.69;4979786;28;20378;-70
2022/07/31 03:47:46;;;;;;;27.95;16.30;;;;;;;17.45;76.26;101437.13;4996475;28;20018;-70
2022/07/31 03:50:12;;;;;;;27.67;15.70;;;;;;;17.30;76.75;101439.88;4967726;28;20412;-70
2022/07/31 03:52:38;;;;;;;25.05;17.42;;;;;;;17.28;76.56;101436.47;4970484;28;20030;-70
2022/07/31 03:55:06;;;;;;;28.48;16.35;;;;;;;17.32;76.29;101437.78;4973448;28;20037;-70
2022/07/31 03:57:31;;;;;;;27.52;15.23;;;;;;;17.36;75.74;101433.63;4986853;28;20033;-70
2022/07/31 03:59:59;;;;;;;25.73;14.57;;;;;;;17.37;75.91;101440.81;4979692;28;20030;-70
2022/07/31 04:02:26;;;;;;;22.65;14.38;;;;;;;17.40;75.58;101434.94;4966896;28;20027;-70
2022/07/31 04:04:51;;;;;;;20.95;14.25;;;;;;;17.24;76.38;101437.88;4989650;28;20030;-70
2022/07/31 04:07:17;;;;;;;33.85;19.33;;;;;;;17.33;76.66;101436.72;4993116;28;20022;-70
2022/07/31 04:09:44;;;;;;;29.92;17.88;;;;;;;17.30;76.53;101443.44;4968362;28;20027;-69
2022/07/31 04:12:09;;;;;;;30.42;16.38;;;;;;;17.38;76.95;101437.03;4985705;28;20104;-70
2022/07/31 04:14:35;;;;;;;31.63;21.58;;;;;;;17.43;77.54;101440.03;4971778;28;20472;-69
2022/07/31 04:17:00;;;;;;;40.42;22.33;;;;;;;17.54;77.31;101442.31;4972017;28;20022;-71
2022/07/31 04:19:29;;;;;;;31.75;17.83;;;;;;;17.51;76.54;101439.94;4961202;28;20045;-69
2022/07/31 04:21:56;;;;;;;34.38;20.55;;;;;;;17.50;77.42;101451.94;4968227;28;20096;-69
2022/07/31 04:24:21;;;;;;;33.78;22.02;;;;;;;17.52;77.31;101444.38;4966437;28;20177;-69
2022/07/31 04:26:48;;;;;;;40.35;22.10;;;;;;;17.54;77.53;101453.28;4984133;28;20101;-69
2022/07/31 04:29:13;;;;;;;42.33;23.60;;;;;;;17.56;77.50;101456.66;4972565;28;20112;-68
2022/07/31 04:31:38;;;;;;;32.75;22.95;;;;;;;17.58;77.44;101451.84;4973773;28;20101;-69
2022/07/31 04:34:04;;;;;;;33.55;20.10;;;;;;;17.71;76.90;101458.53;4986755;28;20022;-69
2022/07/31 04:36:30;;;;;;;28.52;19.50;;;;;;;17.78;76.37;101459.50;4971880;28;20026;-69
2022/07/31 04:38:56;;;;;;;37.63;20.52;;;;;;;17.92;76.21;101444.91;4985415;28;20022;-71
2022/07/31 04:41:21;;;;;;;25.40;17.00;;;;;;;18.08;75.41;101455.66;4979943;28;20034;-69
2022/07/31 04:43:47;;;;;;;32.15;18.98;;;;;;;18.13;75.65;101453.19;4970835;28;20033;-69
2022/07/31 04:46:12;;;;;;;43.15;19.73;;;;;;;18.15;75.87;101467.53;4986251;28;20042;-71
2022/07/31 04:48:37;;;;;;;35.03;19.33;;;;;;;18.24;75.30;101464.66;4969040;28;20495;-69
2022/07/31 04:51:03;;;;;;;38.85;17.50;;;;;;;18.38;74.62;101461.03;4966633;28;20030;-69
2022/07/31 04:53:28;;;;;;;30.98;18.80;;;;;;;18.31;74.35;101457.38;4966773;28;20023;-69
2022/07/31 04:56:40;;;;;;;39.67;18.65;;;;;;;18.27;74.76;101469.78;4970714;28;20022;-69
2022/07/31 04:58:42;;;;;;;27.17;16.50;;;;;;;18.16;75.82;101458.28;4993391;28;20050;-69
2022/07/31 05:01:07;;;;;;;32.20;17.17;;;;;;;18.30;75.19;101463.91;4979939;28;20499;-69
2022/07/31 05:03:33;;;;;;;28.33;17.75;;;;;;;18.36;74.61;101463.13;4977087;28;20134;-69
2022/07/31 05:06:09;;;;;;;27.75;16.60;;;;;;;18.24;75.42;101459.19;5000581;28;20023;-69
2022/07/31 05:08:34;;;;;;;32.45;17.65;;;;;;;18.43;74.81;101464.03;4965946;28;20061;-69
2022/07/31 05:13:44;;;;;;;24.15;16.55;;;;;;;18.57;74.02;101460.38;4986414;28;20022;-69
2022/07/31 05:16:10;;;;;;;27.52;17.15;;;;;;;18.76;73.40;101469.84;4962281;28;20026;-70
2022/07/31 05:18:36;;;;;;;30.45;16.30;;;;;;;19.01;72.24;101452.97;4969298;28;20033;-70
2022/07/31 05:21:02;;;;;;;37.25;17.77;;;;;;;18.96;72.21;101459.03;4995299;28;20038;-69
2022/07/31 05:23:27;;;;;;;34.58;19.75;;;;;;;18.50;74.14;101458.63;4979096;28;20042;-69
2022/07/31 05:25:53;;;;;;;30.10;18.92;;;;;;;18.54;73.76;101458.03;4994917;28;20065;-69
2022/07/31 05:28:18;;;;;;;31.92;18.27;;;;;;;18.67;73.59;101455.44;4979406;28;20026;-69
2022/07/31 05:30:43;;;;;;;31.67;18.73;;;;;;;18.58;74.05;101451.13;4975717;28;20081;-69
2022/07/31 05:33:09;;;;;;;36.00;21.10;;;;;;;18.51;74.22;101450.19;4994341;28;20077;-69
2022/07/31 05:35:34;;;;;;;30.83;20.65;;;;;;;18.59;73.85;101450.06;4976615;28;20085;-69
2022/07/31 05:37:59;;;;;;;34.25;18.50;;;;;;;18.67;73.73;101444.47;4993671;28;20085;-69
2022/07/31 05:40:25;;;;;;;36.97;21.35;;;;;;;18.81;73.35;101445.44;4995820;28;20124;-69
2022/07/31 05:42:51;;;;;;;34.22;20.77;;;;;;;18.68;73.88;101446.16;4990483;28;20085;-71
2022/07/31 05:45:16;;;;;;;32.08;18.30;;;;;;;18.91;72.96;101450.59;4969749;28;20029;-69
2022/07/31 05:47:42;;;;;;;34.63;18.48;;;;;;;18.96;72.84;101442.59;4970362;28;20022;-69
2022/07/31 05:50:08;;;;;;;31.63;17.27;;;;;;;18.93;73.37;101438.34;4987400;28;20126;-69
2022/07/31 05:52:33;;;;;;;25.02;17.33;;;;;;;19.02;72.62;101441.78;4968288;28;20062;-69
2022/07/31 05:54:59;;;;;;;29.17;16.60;;;;;;;19.13;72.53;101443.97;4968751;28;20054;-69
2022/07/31 05:57:24;;;;;;;24.38;15.15;;;;;;;19.19;72.23;101437.69;4971745;28;20078;-69
2022/07/31 05:59:49;;;;;;;38.30;18.85;;;;;;;19.20;71.99;101444.03;4963339;28;20068;-69
2022/07/31 06:02:15;;;;;;;30.50;15.95;;;;;;;19.22;71.73;101448.25;4974560;28;20022;-71
2022/07/31 06:04:40;;;;;;;32.30;17.20;;;;;;;19.49;70.58;101437.44;4974645;28;20029;-71
2022/07/31 06:07:06;;;;;;;29.55;15.90;;;;;;;19.51;70.84;101435.34;4993025;28;20077;-71
2022/07/31 06:09:31;;;;;;;28.85;15.75;;;;;;;19.71;70.31;101436.31;4994369;28;20069;-71
2022/07/31 06:11:56;;;;;;;25.08;14.02;;;;;;;19.87;69.57;101450.75;4998719;28;20025;-69
2022/07/31 06:14:22;;;;;;;23.55;14.00;;;;;;;19.70;70.52;101445.63;4995923;28;20059;-69
2022/07/31 06:16:49;;;;;;;23.30;14.23;;;;;;;19.84;69.67;101451.16;4970233;28;20030;-69
2022/07/31 06:19:15;;;;;;;24.42;13.25;;;;;;;19.66;70.21;101455.31;4989146;28;20030;-69
2022/07/31 06:21:40;;;;;;;24.13;14.55;;;;;;;19.47;70.58;101461.50;4973810;28;20026;-69
2022/07/31 06:24:06;;;;;;;22.15;12.05;;;;;;;19.74;69.65;101452.38;4982538;28;20116;-69
2022/07/31 06:26:31;;;;;;;25.45;10.98;;;;;;;20.19;68.18;101455.50;4969260;28;20018;-69
2022/07/31 06:28:56;;;;;;;22.33;9.68;;;;;;;19.92;67.68;101449.09;4966693;28;20109;-69
2022/07/31 06:31:22;;;;;;;17.55;10.27;;;;;;;19.79;67.91;101449.88;4978227;28;20026;-69
2022/07/31 06:33:48;;;;;;;16.88;10.38;;;;;;;20.04;66.83;101441.94;4960365;28;20034;-70
2022/07/31 06:36:15;;;;;;;22.23;10.55;;;;;;;20.37;66.02;101451.31;4973419;28;20026;-71
2022/07/31 06:38:41;;;;;;;19.15;9.07;;;;;;;20.59;63.88;101444.59;5006821;28;20018;-70
2022/07/31 06:41:06;;;;;;;23.27;7.82;;;;;;;20.91;63.25;101433.81;4977640;28;20129;-71
2022/07/31 06:43:31;;;;;;;16.10;7.40;;;;;;;20.85;61.06;101427.25;4963028;28;20029;-70
2022/07/31 06:45:56;;;;;;;9.43;5.47;;;;;;;20.97;59.33;101430.22;4976453;28;20034;-71
2022/07/31 06:48:22;;;;;;;11.13;5.10;;;;;;;21.15;58.35;101438.66;4993251;28;20109;-71
2022/07/31 06:50:48;;;;;;;14.82;9.18;;;;;;;21.32;59.77;101428.94;4996613;28;20019;-71
2022/07/31 06:53:16;;;;;;;19.10;7.40;;;;;;;21.30;60.33;101431.03;4975966;28;20022;-71
2022/07/31 06:55:41;;;;;;;13.90;5.53;;;;;;;21.06;61.64;101428.91;4972853;28;20528;-71
2022/07/31 06:58:07;;;;;;;11.85;5.80;;;;;;;21.17;60.54;101431.03;4993386;28;20026;-71
2022/07/31 07:00:32;;;;;;;12.10;4.63;;;;;;;21.14;60.62;101431.47;4973928;28;20019;-71
2022/07/31 07:02:58;;;;;;;16.40;4.82;;;;;;;21.33;60.01;101433.38;4975853;28;20022;-69
2022/07/31 07:05:26;;;;;;;10.18;4.40;;;;;;;21.44;60.32;101437.34;5000082;28;20052;-71
2022/07/31 07:07:51;;;;;;;18.02;5.88;;;;;;;21.65;60.27;101427.97;4970296;28;20067;-70
2022/07/31 07:10:16;;;;;;;12.52;5.30;;;;;;;21.57;60.72;101419.94;4993058;28;20030;-71
2022/07/31 07:12:42;;;;;;;12.05;7.80;;;;;;;21.21;62.12;101429.56;4982949;28;20026;-71
2022/07/31 07:15:08;;;;;;;25.38;10.57;;;;;;;21.40;62.38;101425.09;4988730;28;20051;-71
2022/07/31 07:17:33;;;;;;;23.17;7.72;;;;;;;21.29;62.49;101428.50;4967136;28;20054;-71
2022/07/31 07:19:58;;;;;;;26.17;9.52;;;;;;;21.17;62.58;101431.03;4959050;28;20039;-70
2022/07/31 07:22:24;;;;;;;20.08;10.60;;;;;;;21.06;63.09;101426.16;4978737;28;20250;-70
2022/07/31 07:24:50;;;;;;;21.20;9.13;;;;;;;20.75;63.87;101424.94;4986001;28;20023;-69
2022/07/31 07:27:15;;;;;;;21.77;10.60;;;;;;;20.84;64.30;101414.56;4992016;28;20026;-69
2022/07/31 07:29:41;;;;;;;18.65;9.45;;;;;;;21.37;62.62;101407.06;4981702;28;20105;-70
2022/07/31 07:32:06;;;;;;;31.42;11.40;;;;;;;21.31;62.50;101405.16;5000375;28;20061;-70
2022/07/31 07:34:31;;;;;;;19.55;10.32;;;;;;;20.80;64.54;101414.16;4966362;28;20041;-71
2022/07/31 07:36:57;;;;;;;23.70;10.40;;;;;;;21.36;62.85;101408.13;4975217;28;20026;-70
2022/07/31 07:39:22;;;;;;;19.10;10.48;;;;;;;21.46;62.44;101412.34;4974966;28;20034;-70
2022/07/31 07:41:47;;;;;;;18.20;8.90;;;;;;;21.66;62.21;101413.13;4983032;28;20077;-71
2022/07/31 07:44:13;;;;;;;19.95;11.05;;;;;;;21.63;60.93;101405.28;4971014;28;20120;-70
2022/07/31 07:46:38;;;;;;;20.00;9.20;;;;;;;21.58;61.80;101410.59;4955892;28;20023;-71
2022/07/31 07:49:04;;;;;;;22.25;11.20;;;;;;;21.75;60.40;101406.28;4979791;28;20034;-70
2022/07/31 07:51:29;;;;;;;32.08;9.63;;;;;;;21.26;61.88;101402.22;4985053;28;20046;-71
2022/07/31 07:53:54;;;;;;;22.35;9.23;;;;;;;21.30;60.96;101408.16;4966465;28;20030;-71
2022/07/31 07:56:20;;;;;;;17.25;9.23;;;;;;;21.50;60.01;101414.44;4969588;28;20022;-71
2022/07/31 07:58:45;;;;;;;23.55;9.43;;;;;;;20.90;60.81;101404.59;4979958;28;20092;-71
2022/07/31 08:01:10;;;;;;;21.95;8.00;;;;;;;21.05;60.32;101406.03;4990571;28;20052;-70
2022/07/31 08:03:36;;;;;;;23.38;8.23;;;;;;;21.42;59.58;101400.06;4975675;28;20068;-70
2022/07/31 08:06:02;;;;;;;25.45;8.68;;;;;;;21.59;59.11;101407.66;4981700;28;20081;-70
2022/07/31 08:08:27;;;;;;;14.65;6.50;;;;;;;21.76;58.98;101402.47;4966676;28;20026;-71
2022/07/31 08:10:53;;;;;;;19.45;7.82;;;;;;;21.56;59.15;101415.50;4963453;28;20119;-70
2022/07/31 08:13:19;;;;;;;12.35;5.68;;;;;;;21.45;60.21;101410.63;4995902;28;20030;-71
2022/07/31 08:15:44;;;;;;;18.25;5.95;;;;;;;21.73;59.77;101408.44;4975600;28;20026;-71
2022/07/31 08:18:10;;;;;;;23.17;7.10;;;;;;;21.61;59.32;101411.00;4978162;28;20053;-71
2022/07/31 08:20:37;;;;;;;21.10;6.25;;;;;;;21.78;59.67;101400.34;4990584;28;20022;-71
2022/07/31 08:23:02;;;;;;;9.07;6.30;;;;;;;21.68;60.19;101414.59;4976025;28;20037;-70
2022/07/31 08:25:27;;;;;;;15.43;6.63;;;;;;;21.53;60.69;101402.16;4975892;28;20018;-71
2022/07/31 08:27:56;;;;;;;17.05;6.28;;;;;;;21.52;61.26;101411.50;4969734;28;20109;-70
2022/07/31 08:30:21;;;;;;;16.55;6.85;;;;;;;21.12;61.57;101417.88;4974084;28;20086;-70
2022/07/31 08:32:46;;;;;;;16.60;6.03;;;;;;;21.08;61.75;101415.81;4965922;28;20532;-70
2022/07/31 08:35:12;;;;;;;12.35;5.85;;;;;;;21.13;62.16;101419.63;4973570;28;20033;-70
2022/07/31 08:37:40;;;;;;;18.52;6.13;;;;;;;21.21;61.78;101415.78;4970038;28;20015;-70
2022/07/31 08:40:06;;;;;;;13.70;5.47;;;;;;;21.54;60.39;101414.88;4971653;28;20026;-70
2022/07/31 08:42:32;;;;;;;13.32;6.63;;;;;;;21.52;59.48;101412.34;4978548;28;20396;-70
2022/07/31 08:44:58;;;;;;;12.60;5.28;;;;;;;21.50;60.01;101408.09;4986922;28;20023;-70
2022/07/31 08:47:24;;;;;;;16.33;4.60;;;;;;;21.95;58.89;101412.56;4977500;28;20040;-70
2022/07/31 08:49:50;;;;;;;13.77;4.63;;;;;;;21.75;59.42;101411.81;4998395;28;20024;-71
2022/07/31 08:52:24;;;;;;;10.35;4.38;;;;;;;21.70;59.20;101411.59;4989347;28;20018;-70
2022/07/31 08:54:53;;;;;;;12.13;3.90;;;;;;;22.39;58.06;101413.59;4981564;28;20018;-71
2022/07/31 08:57:19;;;;;;;12.23;5.70;;;;;;;22.18;58.27;101400.16;4971239;28;20018;-70
2022/07/31 08:59:45;;;;;;;11.68;4.82;;;;;;;21.55;60.41;101406.38;4989469;28;20025;-71
2022/07/31 09:02:12;;;;;;;12.70;4.60;;;;;;;22.03;58.58;101405.91;4970522;28;20029;-70
2022/07/31 09:04:38;;;;;;;10.45;4.25;;;;;;;22.01;58.65;101398.94;4967728;28;20026;-70
2022/07/31 09:07:04;;;;;;;17.20;5.70;;;;;;;22.11;57.32;101402.13;4994063;28;20026;-70
2022/07/31 09:09:30;;;;;;;10.55;4.43;;;;;;;22.33;57.34;101400.69;4994908;28;20029;-71
2022/07/31 09:11:56;;;;;;;11.88;4.55;;;;;;;22.34;56.60;101410.66;4975257;28;20046;-71
2022/07/31 09:14:35;;;;;;;9.35;3.83;;;;;;;22.66;56.13;101408.69;4978930;28;20045;-69
2022/07/31 09:17:02;;;;;;;10.73;4.70;;;;;;;23.18;54.93;101402.94;4996138;28;20105;-71
2022/07/31 09:19:40;;;;;;;15.57;4.47;;;;;;;23.14;53.94;101404.44;4970709;28;20022;-71
2022/07/31 09:22:06;;;;;;;14.65;4.57;;;;;;;23.12;53.79;101406.59;4968301;28;20026;-69
2022/07/31 09:24:34;;;;;;;9.18;3.83;;;;;;;23.02;54.23;101399.69;4996815;28;20025;-72
2022/07/31 09:27:07;;;;;;;10.73;3.63;;;;;;;23.31;52.93;101391.75;4997557;28;20026;-71
2022/07/31 09:29:38;;;;;;;8.02;3.65;;;;;;;23.18;53.81;101383.59;4973640;28;20042;-71
2022/07/31 09:32:08;;;;;;;15.80;4.03;;;;;;;22.94;53.31;101383.41;4973993;28;20034;-71
2022/07/31 09:34:34;;;;;;;11.13;3.70;;;;;;;23.22;52.60;101391.22;4982260;28;20022;-71
2022/07/31 09:37:19;;;;;;;9.35;3.88;;;;;;;22.59;53.73;101379.47;4981790;28;20018;-71
2022/07/31 09:39:52;;;;;;;7.85;3.25;;;;;;;22.80;53.48;101373.53;4964846;28;20053;-71
2022/07/31 09:42:19;;;;;;;9.15;3.78;;;;;;;23.49;52.09;101375.16;4965223;28;20026;-69
2022/07/31 09:44:47;;;;;;;10.95;2.67;;;;;;;24.08;50.99;101372.69;4994086;28;20094;-71
2022/07/31 09:47:25;;;;;;;10.95;3.20;;;;;;;23.65;50.94;101361.78;4973695;28;20113;-69
2022/07/31 09:50:03;;;;;;;7.95;3.50;;;;;;;23.58;51.38;101372.06;4971889;28;20057;-70
2022/07/31 09:52:30;;;;;;;6.80;2.75;;;;;;;23.33;52.92;101361.94;4978216;28;20018;-71
2022/07/31 09:55:08;;;;;;;6.93;3.35;;;;;;;23.81;51.22;101361.16;4972819;28;20025;-70
2022/07/31 09:57:36;;;;;;;15.07;3.95;;;;;;;24.21;50.03;101361.41;4963652;28;20049;-71
2022/07/31 10:00:04;;;;;;;10.93;3.78;;;;;;;24.47;49.68;101364.88;4981505;28;20029;-70
2022/07/31 10:02:30;;;;;;;7.07;3.30;;;;;;;24.38;48.40;101364.34;4964339;28;20025;-70
2022/07/31 10:04:57;;;;;;;10.20;3.72;;;;;;;24.24;48.63;101360.09;4973583;28;20018;-70
2022/07/31 10:07:26;;;;;;;10.07;3.30;;;;;;;24.71;48.92;101362.94;4980281;28;20236;-70
2022/07/31 10:09:56;;;;;;;11.23;3.40;;;;;;;24.85;48.44;101350.56;4972949;28;20022;-70
2022/07/31 10:12:22;;;;;;;4.95;2.95;;;;;;;24.85;48.67;101356.09;4987646;28;20037;-70
2022/07/31 10:14:50;;;;;;;5.90;3.10;;;;;;;25.06;47.95;101352.75;4977164;28;20031;-70
2022/07/31 10:17:23;;;;;;;9.82;4.15;;;;;;;24.90;47.04;101347.88;4958808;28;20065;-70
2022/07/31 10:19:50;;;;;;;10.40;3.20;;;;;;;25.03;48.59;101344.88;4970943;28;20018;-70
2022/07/31 10:22:18;;;;;;;8.00;3.55;;;;;;;25.14;47.83;101337.66;4979376;28;20081;-70
2022/07/31 10:24:47;;;;;;;11.52;3.55;;;;;;;25.79;46.64;101333.75;4999435;28;20022;-70
2022/07/31 10:27:15;;;;;;;7.78;3.65;;;;;;;25.93;46.63;101335.97;4966361;28;20027;-70
2022/07/31 10:29:41;;;;;;;8.77;3.83;;;;;;;26.12;46.16;101335.75;5001225;28;20053;-70
2022/07/31 10:32:07;;;;;;;9.98;3.22;;;;;;;25.84;44.42;101333.88;4967698;28;20105;-70
2022/07/31 10:34:33;;;;;;;9.88;3.50;;;;;;;25.97;44.55;101325.22;4977009;28;20037;-70
2022/07/31 10:37:06;;;;;;;9.07;3.40;;;;;;;26.54;44.37;101324.25;4977443;28;20022;-70
2022/07/31 10:39:44;;;;;;;8.50;3.00;;;;;;;26.50;43.97;101323.94;4976048;28;20022;-70
2022/07/31 10:42:22;;;;;;;6.25;2.60;;;;;;;26.27;44.82;101318.50;4969195;28;20038;-70
2022/07/31 10:45:02;;;;;;;10.00;2.78;;;;;;;26.28;44.22;101314.63;4976530;28;20501;-70
2022/07/31 10:47:28;;;;;;;10.27;2.95;;;;;;;26.33;43.62;101320.28;4993392;28;20026;-70
2022/07/31 10:49:53;;;;;;;13.05;3.13;;;;;;;26.51;42.07;101317.28;4976938;28;20166;-71
2022/07/31 10:52:27;;;;;;;7.57;2.50;;;;;;;26.22;42.70;101317.34;4979903;28;20026;-70
2022/07/31 10:54:56;;;;;;;7.03;2.42;;;;;;;26.58;41.70;101308.78;4975932;28;20490;-71
2022/07/31 10:57:28;;;;;;;6.63;2.50;;;;;;;27.16;41.74;101305.47;4979241;28;20096;-70
2022/07/31 10:59:54;;;;;;;10.45;3.25;;;;;;;27.47;41.52;101314.22;4983930;28;20022;-70
2022/07/31 11:02:30;;;;;;;7.63;3.00;;;;;;;27.40;41.72;101306.06;4972716;28;20045;-70
2022/07/31 11:05:08;;;;;;;9.82;2.90;;;;;;;27.89;39.43;101308.00;4977118;28;20018;-70
2022/07/31 11:07:34;;;;;;;6.38;2.70;;;;;;;27.23;41.51;101300.56;4973508;28;20026;-70
2022/07/31 11:10:17;;;;;;;5.25;2.47;;;;;;;27.25;40.52;101298.34;4974172;28;20096;-71
2022/07/31 11:12:43;;;;;;;5.32;2.30;;;;;;;26.86;38.58;101299.47;4973055;28;20113;-70
2022/07/31 11:15:22;;;;;;;7.45;2.40;;;;;;;25.65;41.70;101295.19;4978796;28;20121;-70
2022/07/31 11:17:49;;;;;;;4.10;2.13;;;;;;;25.68;41.31;101278.03;4999651;28;20010;-70